createdAt,value
2018-02-06T00:01:30.700Z,14.63
2018-02-06T00:03:58.171Z,16.03
2018-02-06T00:06:25.648Z,16.93
2018-02-06T00:08:53.132Z,16.30
2018-02-06T00:11:20.974Z,14.43
2018-02-06T00:13:48.546Z,16.70
2018-02-06T00:16:16.024Z,14.10
2018-02-06T00:18:43.509Z,18.40
2018-02-06T00:21:10.984Z,24.73
2018-02-06T00:23:38.465Z,15.40
2018-02-06T00:26:05.959Z,18.53
2018-02-06T00:28:33.449Z,20.60
2018-02-06T00:31:00.926Z,18.60
2018-02-06T00:33:28.410Z,15.40
2018-02-06T00:35:55.905Z,18.60
2018-02-06T00:38:23.405Z,16.73
2018-02-06T00:40:50.861Z,14.23
2018-02-06T00:43:18.335Z,21.20
2018-02-06T00:45:45.812Z,18.97
2018-02-06T00:48:13.321Z,20.50
2018-02-06T00:50:40.797Z,19.33
2018-02-06T00:53:08.375Z,21.00
2018-02-06T00:55:35.965Z,17.63
2018-02-06T00:58:03.429Z,21.97
2018-02-06T01:00:30.905Z,25.03
2018-02-06T01:02:58.434Z,21.70
2018-02-06T01:05:25.914Z,17.60
2018-02-06T01:07:53.488Z,22.40
2018-02-06T01:10:20.973Z,18.70
2018-02-06T01:12:48.440Z,19.57
2018-02-06T01:15:15.992Z,18.57
2018-02-06T01:17:43.476Z,20.63
2018-02-06T01:20:11.040Z,23.73
2018-02-06T01:22:38.613Z,16.27
2018-02-06T01:25:06.100Z,17.63
2018-02-06T01:27:33.663Z,19.43
2018-02-06T01:30:01.232Z,15.77
2018-02-06T01:32:36.220Z,18.67
2018-02-06T01:35:03.740Z,20.70
2018-02-06T01:37:31.214Z,25.83
2018-02-06T01:39:58.808Z,21.20
2018-02-06T04:39:28.779Z,28.27
2018-02-06T04:41:56.255Z,26.80
2018-02-06T04:44:23.720Z,32.17
2018-02-06T04:46:51.189Z,29.80
2018-02-06T04:49:18.645Z,29.13
2018-02-06T04:51:46.127Z,33.67
2018-02-06T04:54:13.572Z,21.77
2018-02-06T04:56:41.028Z,26.97
2018-02-06T04:59:08.511Z,30.37
2018-02-06T05:01:36.032Z,26.47
2018-02-06T05:04:03.514Z,31.83
2018-02-06T05:06:30.971Z,27.23
2018-02-06T05:08:58.444Z,27.30
2018-02-06T05:11:25.991Z,26.73
2018-02-06T05:13:53.473Z,26.93
2018-02-06T05:16:20.954Z,29.93
2018-02-06T05:18:48.488Z,27.00
2018-02-06T05:21:15.984Z,27.50
2018-02-06T05:23:43.439Z,30.07
2018-02-06T05:26:10.917Z,33.43
2018-02-06T05:28:38.393Z,33.40
2018-02-06T05:31:05.944Z,29.37
2018-02-06T05:33:33.440Z,27.90
2018-02-06T05:36:00.963Z,28.53
2018-02-06T05:38:28.463Z,29.03
2018-02-06T05:40:55.991Z,27.93
2018-02-06T05:43:23.460Z,32.63
2018-02-06T05:45:50.921Z,28.13
2018-02-06T05:48:18.417Z,45.77
2018-02-06T05:50:45.893Z,34.53
2018-02-06T05:53:13.382Z,29.67
2018-02-06T05:55:40.881Z,37.10
2018-02-06T05:58:08.372Z,29.20
2018-02-06T06:00:35.896Z,33.03
2018-02-06T06:03:03.349Z,24.77
2018-02-06T06:05:30.840Z,30.17
2018-02-06T06:07:58.308Z,28.87
2018-02-06T06:10:26.023Z,30.07
2018-02-06T06:12:53.596Z,33.00
2018-02-06T06:15:21.073Z,34.57
2018-02-06T06:17:48.594Z,32.80
2018-02-06T06:20:16.113Z,28.77
2018-02-06T06:22:43.608Z,32.87
2018-02-06T06:25:11.097Z,32.37
2018-02-06T06:27:38.564Z,31.70
2018-02-06T06:30:06.161Z,30.43
2018-02-06T06:32:33.623Z,28.33
2018-02-06T06:35:01.140Z,34.77
2018-02-06T06:37:28.605Z,29.83
2018-02-06T06:39:56.080Z,28.17
2018-02-06T06:42:23.548Z,32.60
2018-02-06T06:44:51.072Z,41.40
2018-02-06T06:47:18.556Z,30.90
2018-02-06T06:49:46.061Z,32.83
2018-02-06T06:52:13.600Z,31.77
2018-02-06T06:54:41.160Z,31.47
2018-02-06T06:57:08.774Z,29.10
2018-02-06T06:59:37.105Z,28.63
2018-02-06T07:02:04.642Z,30.47
2018-02-06T07:04:32.126Z,32.00
2018-02-06T07:06:59.618Z,32.20
2018-02-06T07:09:27.215Z,31.33
2018-02-06T07:11:54.676Z,33.13
2018-02-06T07:14:22.231Z,30.93
2018-02-06T07:16:49.689Z,29.83
2018-02-06T07:19:17.187Z,29.60
2018-02-06T07:21:44.672Z,24.83
2018-02-06T07:24:12.216Z,43.63
2018-02-06T07:26:39.675Z,32.73
2018-02-06T07:29:07.164Z,34.23
2018-02-06T07:31:34.632Z,32.13
2018-02-06T07:34:02.097Z,27.13
2018-02-06T07:36:29.573Z,26.10
2018-02-06T07:38:57.033Z,23.93
2018-02-06T07:41:24.502Z,21.93
2018-02-06T07:43:51.954Z,21.20
2018-02-06T07:46:19.419Z,23.93
2018-02-06T07:48:46.885Z,21.97
2018-02-06T07:51:14.348Z,22.90
2018-02-06T07:53:41.845Z,20.07
2018-02-06T07:56:09.388Z,19.60
2018-02-06T07:58:36.831Z,27.50
2018-02-06T08:01:04.326Z,21.70
2018-02-06T08:03:31.828Z,20.63
2018-02-06T08:05:59.304Z,25.17
2018-02-06T08:08:26.872Z,25.73
2018-02-06T08:10:54.361Z,21.43
2018-02-06T08:13:21.819Z,28.53
2018-02-06T08:15:49.298Z,28.20
2018-02-06T08:18:16.762Z,28.43
2018-02-06T08:20:44.239Z,25.10
2018-02-06T08:23:11.719Z,24.53
2018-02-06T08:25:39.264Z,21.33
2018-02-06T08:28:06.732Z,28.00
2018-02-06T08:30:34.202Z,25.07
2018-02-06T08:33:01.684Z,23.80
2018-02-06T08:35:29.176Z,19.97
2018-02-06T08:37:56.705Z,21.67
2018-02-06T08:40:24.168Z,24.70
2018-02-06T08:42:51.666Z,20.27
2018-02-06T08:45:19.230Z,23.17
2018-02-06T08:47:46.807Z,23.07
2018-02-06T08:50:14.372Z,22.17
2018-02-06T08:52:41.846Z,24.73
2018-02-06T08:55:09.303Z,22.30
2018-02-06T08:57:36.784Z,23.50
2018-02-06T09:00:04.255Z,25.07
2018-02-06T09:02:31.732Z,32.03
2018-02-06T09:04:59.305Z,23.53
2018-02-06T09:07:26.831Z,23.47
2018-02-06T09:09:54.298Z,21.67
2018-02-06T09:12:21.749Z,25.67
2018-02-06T09:14:49.276Z,21.17
2018-02-06T09:17:16.745Z,25.03
2018-02-06T09:19:44.237Z,24.83
2018-02-06T09:22:11.708Z,26.07
2018-02-06T09:24:39.185Z,23.03
2018-02-06T09:27:06.667Z,27.20
2018-02-06T09:29:34.202Z,23.63
2018-02-06T09:32:01.772Z,26.20
2018-02-06T09:34:29.264Z,22.07
2018-02-06T09:36:56.721Z,29.90
2018-02-06T09:39:24.179Z,24.23
2018-02-06T09:41:51.672Z,22.83
2018-02-06T09:44:19.589Z,30.63
2018-02-06T09:46:47.066Z,21.70
2018-02-06T09:49:14.523Z,21.33
2018-02-06T09:51:42.024Z,26.33
2018-02-06T09:54:09.510Z,23.20
2018-02-06T09:56:36.982Z,22.43
2018-02-06T09:59:04.553Z,17.93
2018-02-06T10:01:32.125Z,20.27
2018-02-06T10:03:59.575Z,23.93
2018-02-06T10:06:27.040Z,22.20
2018-02-06T10:08:54.510Z,22.50
2018-02-06T10:11:21.972Z,23.13
2018-02-06T10:13:49.474Z,29.00
2018-02-06T10:16:16.953Z,20.47
2018-02-06T10:18:44.424Z,26.33
2018-02-06T10:21:11.901Z,22.63
2018-02-06T10:23:39.663Z,22.47
2018-02-06T10:26:07.145Z,20.00
2018-02-06T10:28:34.663Z,21.17
2018-02-06T10:31:02.137Z,17.80
2018-02-06T10:33:29.620Z,21.60
2018-02-06T10:35:57.119Z,27.10
2018-02-06T10:38:24.588Z,27.07
2018-02-06T10:40:52.145Z,16.13
2018-02-06T10:43:19.616Z,19.70
2018-02-06T10:45:47.457Z,14.87
2018-02-06T10:48:14.917Z,19.67
2018-02-06T10:50:42.370Z,19.33
2018-02-06T10:53:09.848Z,18.67
2018-02-06T10:55:37.326Z,19.80
2018-02-06T10:58:04.805Z,21.80
2018-02-06T11:00:32.268Z,18.50
2018-02-06T11:02:59.768Z,23.37
2018-02-06T11:05:27.260Z,22.27
2018-02-06T11:07:54.717Z,18.70
2018-02-06T11:10:22.199Z,18.30
2018-02-06T11:12:49.650Z,23.60
2018-02-06T11:15:17.135Z,19.23
2018-02-06T11:17:44.705Z,23.17
2018-02-06T11:20:12.159Z,24.13
2018-02-06T11:22:39.758Z,21.37
2018-02-06T11:25:07.272Z,25.37
2018-02-06T11:27:34.750Z,24.07
2018-02-06T11:30:02.370Z,25.50
2018-02-06T11:32:29.853Z,25.80
2018-02-06T11:34:57.407Z,20.83
2018-02-06T11:37:24.877Z,25.50
2018-02-06T11:39:52.356Z,24.80
2018-02-06T11:42:19.931Z,27.83
2018-02-06T11:44:47.396Z,24.83
2018-02-06T11:47:14.962Z,25.70
2018-02-06T11:49:42.465Z,24.33
2018-02-06T11:52:09.928Z,24.73
2018-02-06T11:54:37.404Z,22.60
2018-02-06T11:57:04.916Z,27.20
2018-02-06T11:59:32.364Z,25.00
2018-02-06T12:01:59.881Z,24.47
2018-02-06T12:04:27.375Z,25.67
2018-02-06T12:06:54.930Z,28.50
2018-02-06T12:09:22.508Z,22.30
2018-02-06T12:11:49.979Z,30.33
2018-02-06T12:14:17.469Z,24.67
2018-02-06T12:16:44.933Z,28.40
2018-02-06T12:19:12.421Z,25.53
2018-02-06T12:21:39.881Z,26.20
2018-02-06T12:24:07.368Z,32.93
2018-02-06T12:26:34.836Z,28.33
2018-02-06T12:29:02.301Z,35.53
2018-02-06T12:31:29.834Z,30.43
2018-02-06T12:33:57.410Z,31.27
2018-02-06T12:36:25.162Z,32.83
2018-02-06T12:38:52.683Z,29.53
2018-02-06T12:41:20.159Z,27.33
2018-02-06T12:43:47.619Z,24.13
2018-02-06T12:46:15.098Z,26.97
2018-02-06T12:48:42.652Z,24.07
2018-02-06T12:51:10.125Z,26.47
2018-02-06T12:53:37.658Z,28.27
2018-02-06T12:56:05.532Z,22.70
2018-02-06T12:58:33.043Z,27.47
2018-02-06T13:01:00.595Z,23.67
2018-02-06T13:03:28.079Z,24.00
2018-02-06T13:05:55.638Z,26.63
2018-02-06T13:08:23.134Z,25.93
2018-02-06T13:10:50.610Z,24.57
2018-02-06T13:13:18.169Z,23.53
2018-02-06T13:15:45.736Z,24.50
2018-02-06T13:18:13.297Z,24.07
2018-02-06T13:20:40.754Z,22.67
2018-02-06T13:23:08.235Z,23.60
2018-02-06T13:25:35.704Z,20.33
2018-02-06T13:28:03.175Z,22.93
2018-02-06T13:30:30.660Z,23.60
2018-02-06T13:32:58.211Z,25.70
2018-02-06T13:35:25.786Z,23.40
2018-02-06T13:37:53.251Z,28.77
2018-02-06T13:40:20.821Z,19.87
2018-02-06T13:42:48.277Z,24.83
2018-02-06T13:45:15.857Z,29.57
2018-02-06T13:47:43.329Z,22.77
2018-02-06T13:50:10.807Z,29.47
2018-02-06T13:52:38.311Z,25.93
2018-02-06T13:55:05.874Z,24.37
2018-02-06T14:00:27.169Z,25.43
2018-02-06T14:02:54.653Z,24.43
2018-02-06T14:05:22.113Z,22.07
2018-02-06T14:07:49.591Z,24.50
2018-02-06T14:10:17.043Z,29.77
2018-02-06T14:12:44.569Z,21.90
2018-02-06T14:15:12.014Z,39.80
2018-02-06T14:17:39.492Z,23.83
2018-02-06T14:20:06.942Z,23.40
2018-02-06T14:22:34.392Z,20.70
2018-02-06T14:25:01.856Z,22.73
2018-02-06T14:27:29.302Z,24.63
2018-02-06T14:29:56.783Z,20.47
2018-02-06T14:32:24.233Z,24.47
2018-02-06T14:34:51.709Z,20.93
2018-02-06T14:37:20.476Z,22.40
2018-02-06T14:39:47.947Z,20.83
2018-02-06T14:42:15.400Z,21.23
2018-02-06T14:44:42.863Z,20.33
2018-02-06T14:47:10.323Z,19.13
2018-02-06T14:49:37.773Z,21.70
2018-02-06T14:52:05.246Z,21.33
2018-02-06T14:54:32.703Z,22.20
2018-02-06T14:57:00.155Z,24.67
2018-02-06T14:59:27.636Z,22.50
2018-02-06T15:01:55.103Z,20.97
2018-02-06T15:04:22.572Z,23.43
2018-02-06T15:06:50.034Z,23.07
2018-02-06T15:09:17.475Z,26.37
2018-02-06T15:11:44.924Z,25.17
2018-02-06T15:14:12.395Z,25.47
2018-02-06T15:16:39.848Z,20.83
2018-02-06T15:19:07.320Z,23.70
2018-02-06T15:21:34.772Z,24.53
2018-02-06T15:24:02.257Z,28.13
2018-02-06T15:26:29.825Z,28.63
2018-02-06T15:28:57.293Z,30.90
2018-02-06T15:31:24.741Z,25.50
2018-02-06T15:33:52.229Z,25.17
2018-02-06T15:36:19.693Z,35.07
2018-02-06T15:38:47.133Z,31.47
2018-02-06T15:41:14.601Z,32.43
2018-02-06T15:43:42.044Z,30.40
2018-02-06T15:46:09.506Z,29.00
2018-02-06T15:48:36.960Z,36.53
2018-02-06T15:51:04.445Z,33.77
2018-02-06T15:53:31.946Z,33.83
2018-02-06T15:55:59.432Z,34.73
2018-02-06T15:58:26.913Z,37.60
2018-02-06T16:00:54.375Z,31.97
2018-02-06T16:03:21.844Z,32.43
2018-02-06T16:05:49.311Z,37.63
2018-02-06T16:08:16.784Z,32.43
2018-02-06T16:10:44.235Z,35.53
2018-02-06T16:13:11.721Z,32.30
2018-02-06T16:15:39.174Z,35.33
2018-02-06T16:18:06.655Z,44.70
2018-02-06T16:20:34.123Z,32.07
2018-02-06T16:23:01.590Z,32.77
2018-02-06T16:25:29.038Z,40.17
2018-02-06T16:27:56.551Z,37.03
2018-02-06T16:30:24.029Z,31.57
2018-02-06T16:32:51.522Z,35.80
2018-02-06T16:35:18.983Z,32.60
2018-02-06T16:37:46.472Z,43.17
2018-02-06T16:40:13.954Z,36.77
2018-02-06T16:42:41.417Z,37.00
2018-02-06T16:45:08.887Z,32.20
2018-02-06T16:47:36.498Z,32.93
2018-02-06T16:50:03.995Z,38.13
2018-02-06T16:52:31.547Z,36.07
2018-02-06T16:54:59.021Z,34.53
2018-02-06T16:57:26.509Z,32.13
2018-02-06T16:59:53.965Z,38.17
2018-02-06T17:02:33.345Z,45.40
2018-02-06T17:05:00.809Z,36.60
2018-02-06T17:07:28.275Z,32.73
2018-02-06T17:09:55.731Z,32.90
2018-02-06T17:12:27.521Z,34.63
2018-02-06T17:14:54.972Z,35.30
2018-02-06T17:17:22.445Z,33.57
2018-02-06T17:19:49.932Z,34.70
2018-02-06T17:22:17.404Z,35.30
2018-02-06T17:24:44.871Z,32.10
2018-02-06T17:27:12.423Z,34.50
2018-02-06T17:29:39.887Z,32.90
2018-02-06T17:32:07.371Z,32.03
2018-02-06T17:34:34.857Z,29.33
2018-02-06T17:37:02.323Z,32.03
2018-02-06T17:39:29.804Z,32.13
2018-02-06T17:41:57.272Z,33.23
2018-02-06T17:44:24.725Z,31.73
2018-02-06T17:46:52.236Z,30.63
2018-02-06T17:49:19.784Z,29.57
2018-02-06T17:51:47.515Z,34.33
2018-02-06T17:54:14.974Z,26.57
2018-02-06T17:56:42.484Z,27.53
2018-02-06T17:59:09.936Z,27.13
2018-02-06T18:01:37.428Z,25.77
2018-02-06T18:04:04.910Z,34.40
2018-02-06T18:06:32.465Z,33.97
2018-02-06T18:08:59.982Z,25.47
2018-02-06T18:11:27.451Z,29.47
2018-02-06T18:13:54.916Z,30.23
2018-02-06T18:16:22.371Z,28.37
2018-02-06T18:18:49.908Z,30.73
2018-02-06T18:21:17.392Z,29.00
2018-02-06T18:23:44.864Z,24.97
2018-02-06T18:26:12.352Z,28.33
2018-02-06T18:28:39.808Z,27.43
2018-02-06T18:31:07.473Z,27.77
2018-02-06T18:33:34.929Z,32.67
2018-02-06T18:36:02.392Z,28.70
2018-02-06T18:38:29.886Z,35.77
2018-02-06T18:40:57.478Z,29.60
2018-02-06T18:43:25.037Z,30.80
2018-02-06T18:45:52.549Z,35.23
2018-02-06T18:48:20.030Z,36.67
2018-02-06T18:50:47.494Z,28.83
2018-02-06T18:53:14.939Z,27.83
2018-02-06T18:55:42.500Z,30.03
2018-02-06T18:58:09.955Z,32.67
2018-02-06T19:00:37.436Z,28.97
2018-02-06T19:03:04.902Z,27.10
2018-02-06T19:05:32.394Z,33.60
2018-02-06T19:07:59.951Z,35.57
2018-02-06T19:10:27.419Z,29.17
2018-02-06T19:12:54.904Z,31.53
2018-02-06T19:15:22.364Z,30.77
2018-02-06T19:17:49.886Z,33.40
2018-02-06T19:20:17.328Z,31.40
2018-02-06T19:22:44.795Z,29.40
2018-02-06T19:25:12.253Z,31.87
2018-02-06T19:27:39.896Z,35.47
2018-02-06T19:30:07.344Z,33.43
2018-02-06T19:32:34.817Z,32.53
2018-02-06T19:35:02.322Z,28.20
2018-02-06T19:37:29.781Z,30.73
2018-02-06T19:39:57.320Z,30.43
2018-02-06T19:42:24.838Z,29.03
2018-02-06T19:44:52.374Z,28.37
2018-02-06T19:47:19.829Z,32.10
2018-02-06T19:49:47.301Z,30.87
2018-02-06T19:52:14.763Z,30.57
2018-02-06T19:54:42.238Z,29.97
2018-02-06T19:57:09.692Z,33.27
2018-02-06T19:59:37.156Z,28.67
2018-02-06T20:02:04.634Z,29.90
2018-02-06T20:04:31.409Z,25.43
2018-02-06T20:06:58.868Z,28.30
2018-02-06T20:09:26.562Z,32.70
2018-02-06T20:11:54.141Z,27.73
2018-02-06T20:14:21.604Z,31.53
2018-02-06T20:16:49.146Z,30.20
2018-02-06T20:19:16.599Z,31.00
2018-02-06T20:21:44.115Z,25.03
2018-02-06T20:24:11.675Z,27.63
2018-02-06T20:26:39.191Z,27.90
2018-02-06T20:29:06.648Z,28.70
2018-02-06T20:31:34.249Z,33.30
2018-02-06T20:34:01.784Z,26.93
2018-02-06T20:36:29.270Z,30.17
2018-02-06T20:38:56.744Z,27.37
2018-02-06T20:41:24.208Z,25.90
2018-02-06T20:43:51.717Z,26.70
2018-02-06T20:46:19.222Z,25.63
2018-02-06T20:48:46.814Z,28.30
2018-02-06T20:51:14.310Z,26.30
2018-02-06T20:53:41.776Z,28.07
2018-02-06T20:56:09.235Z,28.53
2018-02-06T20:58:36.702Z,29.53
2018-02-06T21:01:04.262Z,22.03
2018-02-06T21:03:31.815Z,27.00
2018-02-06T21:05:59.275Z,26.27
2018-02-06T21:08:26.986Z,27.77
2018-02-06T21:10:54.526Z,30.47
2018-02-06T21:13:22.073Z,25.53
2018-02-06T21:15:49.547Z,27.43
2018-02-06T21:18:16.994Z,28.57
2018-02-06T21:20:44.467Z,21.90
2018-02-06T21:23:11.916Z,23.23
2018-02-06T21:25:39.395Z,24.17
2018-02-06T21:28:06.860Z,25.83
2018-02-06T21:30:34.426Z,26.77
2018-02-06T21:33:01.926Z,26.17
2018-02-06T21:35:29.368Z,30.33
2018-02-06T21:37:56.890Z,22.50
2018-02-06T21:40:24.452Z,26.07
2018-02-06T21:42:51.978Z,22.50
2018-02-06T21:45:19.490Z,28.67
2018-02-06T21:47:46.967Z,25.33
2018-02-06T21:50:14.446Z,22.77
2018-02-06T21:52:41.915Z,24.37
2018-02-06T21:55:09.389Z,27.03
2018-02-06T21:57:36.852Z,27.07
2018-02-06T22:00:04.320Z,27.43
2018-02-06T22:02:31.794Z,30.63
2018-02-06T22:04:59.281Z,27.67
2018-02-06T22:07:26.788Z,24.83
2018-02-06T22:09:54.273Z,29.70
2018-02-06T22:12:21.739Z,29.47
2018-02-06T22:14:49.231Z,30.10
2018-02-06T22:17:16.731Z,28.40
2018-02-06T22:19:44.242Z,26.40
2018-02-06T22:22:11.676Z,28.73
2018-02-06T22:24:39.125Z,30.47
2018-02-06T22:27:06.582Z,35.13
2018-02-06T22:29:34.032Z,28.37
2018-02-06T22:32:01.497Z,25.63
2018-02-06T22:34:29.014Z,28.47
2018-02-06T22:36:56.506Z,26.67
2018-02-06T22:39:23.973Z,26.43
2018-02-06T22:41:51.437Z,28.77
2018-02-06T22:44:18.877Z,30.57
2018-02-06T22:46:46.566Z,25.83
2018-02-06T22:49:14.012Z,27.73
2018-02-06T22:51:41.504Z,29.30
2018-02-06T22:54:08.988Z,33.60
2018-02-06T22:56:36.444Z,29.90
2018-02-06T22:59:03.914Z,31.07
2018-02-06T23:01:31.381Z,26.27
2018-02-06T23:04:01.827Z,24.47
2018-02-06T23:06:29.299Z,29.13
2018-02-06T23:08:56.760Z,30.57
2018-02-06T23:11:24.233Z,30.77
2018-02-06T23:13:51.703Z,28.97
2018-02-06T23:16:19.169Z,25.87
2018-02-06T23:18:46.670Z,32.00
2018-02-06T23:21:14.126Z,27.83
2018-02-06T23:23:41.603Z,29.00
2018-02-06T23:26:09.064Z,31.10
2018-02-06T23:28:36.531Z,35.90
2018-02-06T23:31:04.002Z,31.17
2018-02-06T23:33:31.454Z,27.03
2018-02-06T23:35:58.921Z,28.00
2018-02-06T23:38:26.399Z,28.40
2018-02-06T23:40:53.868Z,27.47
2018-02-06T23:43:21.336Z,31.07
2018-02-06T23:45:48.792Z,26.57
2018-02-06T23:48:16.286Z,26.10
2018-02-06T23:50:43.764Z,29.67
2018-02-06T23:53:11.266Z,29.73
2018-02-06T23:55:38.770Z,29.57
2018-02-06T23:58:06.247Z,23.43
